Time;durP1;ratioP1;P1;durP2;ratioP2;P2;SDS_P1;SDS_P2;PMS_P1;PMS_P2;Temp;Humidity;BMP_temperature;BMP_pressure;BME280_temperature;BME280_humidity;BME280_pressure;Samples;Min_cycle;Max_cycle;Signal;HPM_P1;HPM_P2
2023/10/10 05:25:13;;;;;;;31.30;10.17;;;;;;;;;;4938058;29;20457;-76
2023/10/10 05:27:45;;;;;;;25.07;9.70;;;;;;;;;;4937579;29;20885;-76
2023/10/10 05:30:23;;;;;;;27.67;9.23;;;;;;;;;;4937745;29;20453;-75
2023/10/10 05:33:03;;;;;;;31.60;11.70;;;;;;;;;;4934368;29;20441;-75
2023/10/10 05:35:33;;;;;;;32.67;10.70;;;;;;;;;;4936370;29;20434;-75
2023/10/10 05:38:04;;;;;;;33.10;11.43;;;;;;;;;;4936937;29;20421;-76
2023/10/10 05:40:33;;;;;;;26.10;10.43;;;;;;;;;;4937119;29;20799;-74
2023/10/10 05:42:59;;;;;;;27.70;10.17;;;;;;;;;;4937657;29;20439;-75
2023/10/10 05:45:25;;;;;;;24.20;9.50;;;;;;;;;;4936604;29;20417;-74
2023/10/10 05:47:51;;;;;;;36.87;12.47;;;;;;;;;;4937223;29;20723;-74
2023/10/10 05:50:18;;;;;;;28.53;11.10;;;;;;;;;;4937343;29;20417;-72
2023/10/10 05:52:44;;;;;;;34.30;10.50;;;;;;;;;;4937362;29;20405;-75
2023/10/10 05:55:11;;;;;;;31.40;11.27;;;;;;;;;;4937795;29;20492;-75
2023/10/10 05:57:40;;;;;;;26.33;10.80;;;;;;;;;;4936890;29;20484;-75
2023/10/10 06:00:10;;;;;;;43.50;10.27;;;;;;;;;;4936005;29;20776;-75
2023/10/10 06:02:42;;;;;;;35.63;10.40;;;;;;;;;;4937120;29;20539;-76
2023/10/10 06:05:09;;;;;;;31.77;10.63;;;;;;;;;;4937613;29;20774;-74
2023/10/10 06:07:37;;;;;;;26.90;10.80;;;;;;;;;;4943707;29;20428;-75
2023/10/10 06:10:06;;;;;;;25.27;9.80;;;;;;;;;;4935694;29;20425;-75
2023/10/10 06:12:36;;;;;;;28.20;9.33;;;;;;;;;;4935639;29;20477;-75
2023/10/10 06:15:05;;;;;;;33.10;10.80;;;;;;;;;;4935254;29;20945;-75
2023/10/10 06:17:34;;;;;;;23.60;10.20;;;;;;;;;;4936606;29;20811;-75
2023/10/10 06:20:01;;;;;;;30.37;11.23;;;;;;;;;;4936675;29;20414;-76
2023/10/10 06:22:29;;;;;;;35.37;12.03;;;;;;;;;;4938005;29;20461;-75
2023/10/10 06:24:59;;;;;;;29.17;9.63;;;;;;;;;;4936525;29;20893;-75
2023/10/10 06:27:28;;;;;;;27.87;9.63;;;;;;;;;;4936371;29;20410;-69
2023/10/10 06:29:58;;;;;;;28.83;9.00;;;;;;;;;;4935924;29;20412;-69
2023/10/10 06:32:25;;;;;;;33.43;10.67;;;;;;;;;;4936107;29;20918;-69
2023/10/10 06:35:04;;;;;;;27.50;9.83;;;;;;;;;;4940629;29;20425;-69
2023/10/10 06:37:37;;;;;;;29.17;10.70;;;;;;;;;;4939985;28;20496;-70
2023/10/10 06:40:08;;;;;;;38.08;11.13;;;;;;;;;;4935448;28;20779;-68
2023/10/10 06:42:34;;;;;;;29.80;10.43;;;;;;;;;;4935864;29;20213;-68
2023/10/10 06:45:07;;;;;;;29.03;9.97;;;;;;;;;;4936814;29;20747;-70
2023/10/10 06:47:33;;;;;;;37.83;10.97;;;;;;;;;;4949917;29;20480;-69
2023/10/10 06:50:00;;;;;;;39.70;10.53;;;;;;;;;;4925594;29;20427;-76
2023/10/10 06:52:27;;;;;;;36.07;10.57;;;;;;;;;;4917007;29;20773;-74
2023/10/10 06:54:56;;;;;;;34.90;12.70;;;;;;;;;;4929736;29;20417;-74
2023/10/10 06:57:35;;;;;;;42.03;13.00;;;;;;;;;;4934305;29;20422;-74
2023/10/10 07:00:06;;;;;;;44.43;13.73;;;;;;;;;;4936014;29;20448;-75
2023/10/10 07:02:39;;;;;;;33.33;13.30;;;;;;;;;;4935824;29;20484;-74
2023/10/10 07:05:07;;;;;;;34.20;12.20;;;;;;;;;;4942081;29;20829;-73
2023/10/10 07:07:37;;;;;;;44.00;12.77;;;;;;;;;;4938851;29;20430;-74
2023/10/10 07:10:09;;;;;;;36.37;12.60;;;;;;;;;;4935630;29;20749;-73
2023/10/10 07:12:35;;;;;;;34.27;11.70;;;;;;;;;;4934011;29;20921;-74
2023/10/10 07:15:06;;;;;;;33.47;13.53;;;;;;;;;;4935520;29;20909;-74
2023/10/10 07:17:32;;;;;;;29.80;10.97;;;;;;;;;;4935641;29;20534;-74
2023/10/10 07:22:28;;;;;;;35.40;11.73;;;;;;;;;;4935432;29;20585;-74
2023/10/10 07:25:06;;;;;;;32.77;11.60;;;;;;;;;;4935388;29;20569;-74
2023/10/10 07:27:36;;;;;;;44.27;12.97;;;;;;;;;;4935077;29;20394;-74
2023/10/10 07:30:33;;;;;;;27.53;12.00;;;;;;;;;;4935009;29;20422;-75
2023/10/10 07:32:50;;;;;;;28.17;9.40;;;;;;;;;;4940363;29;20959;-73
2023/10/10 07:35:16;;;;;;;26.47;11.00;;;;;;;;;;4930363;29;20461;-75
2023/10/10 07:37:43;;;;;;;27.93;10.70;;;;;;;;;;4934971;29;20441;-75
2023/10/10 07:42:49;;;;;;;27.63;10.90;;;;;;;;;;4935488;29;20484;-74
2023/10/10 07:45:15;;;;;;;32.50;11.13;;;;;;;;;;4933470;29;20421;-74
2023/10/10 07:50:35;;;;;;;27.80;11.97;;;;;;;;;;4914718;29;20518;-73
2023/10/10 07:53:06;;;;;;;32.90;11.13;;;;;;;;;;4919058;29;20406;-73
2023/10/10 07:55:59;;;;;;;24.57;10.23;;;;;;;;;;4930370;29;20464;-74
2023/10/10 07:58:23;;;;;;;32.83;11.00;;;;;;;;;;4934538;29;20425;-73
2023/10/10 08:00:49;;;;;;;32.40;11.63;;;;;;;;;;4934095;29;20850;-73
2023/10/10 08:03:21;;;;;;;36.23;10.67;;;;;;;;;;4938534;29;20429;-74
2023/10/10 08:05:48;;;;;;;36.83;9.37;;;;;;;;;;4933416;29;20437;-74
2023/10/10 08:08:26;;;;;;;31.13;10.23;;;;;;;;;;4934736;29;20500;-73
2023/10/10 08:10:52;;;;;;;30.03;11.03;;;;;;;;;;4934818;29;20437;-73
2023/10/10 08:13:18;;;;;;;25.60;10.30;;;;;;;;;;4934659;29;20414;-72
2023/10/10 08:16:02;;;;;;;26.87;9.70;;;;;;;;;;4941079;29;20432;-73
2023/10/10 08:18:49;;;;;;;22.20;10.20;;;;;;;;;;4953374;28;20471;-73
2023/10/10 08:21:15;;;;;;;45.50;10.70;;;;;;;;;;4914884;29;20512;-74
2023/10/10 08:23:46;;;;;;;29.00;8.77;;;;;;;;;;4916242;29;20914;-73
2023/10/10 08:26:18;;;;;;;30.50;9.70;;;;;;;;;;4930529;29;20444;-73
2023/10/10 08:28:47;;;;;;;27.87;9.47;;;;;;;;;;4953847;28;20413;-72
2023/10/10 08:31:13;;;;;;;30.50;9.70;;;;;;;;;;4934196;29;20784;-73
2023/10/10 08:33:40;;;;;;;22.60;8.67;;;;;;;;;;4934899;29;20425;-72
2023/10/10 08:36:06;;;;;;;26.50;8.60;;;;;;;;;;4934924;29;20508;-73
2023/10/10 08:38:32;;;;;;;27.03;8.10;;;;;;;;;;4935600;29;20464;-73
2023/10/10 08:41:01;;;;;;;27.63;8.03;;;;;;;;;;4936029;29;20501;-73
2023/10/10 08:43:31;;;;;;;24.10;8.93;;;;;;;;;;4935744;29;20429;-73
2023/10/10 08:45:58;;;;;;;21.57;7.87;;;;;;;;;;4941338;29;20428;-72
2023/10/10 08:48:28;;;;;;;30.10;8.60;;;;;;;;;;4955886;28;20882;-72
2023/10/10 08:50:54;;;;;;;30.30;8.97;;;;;;;;;;4940050;28;20834;-73
2023/10/10 08:53:22;;;;;;;28.03;8.20;;;;;;;;;;4938548;29;20410;-71
2023/10/10 08:55:57;;;;;;;21.30;7.70;;;;;;;;;;4942545;29;20428;-73
2023/10/10 08:58:24;;;;;;;28.17;8.80;;;;;;;;;;4939505;28;20413;-74
2023/10/10 09:00:50;;;;;;;29.00;8.13;;;;;;;;;;4935091;29;20510;-73
2023/10/10 09:03:17;;;;;;;26.13;9.20;;;;;;;;;;4935292;29;20428;-72
2023/10/10 09:05:44;;;;;;;22.67;8.90;;;;;;;;;;4940507;29;20477;-72
2023/10/10 09:08:16;;;;;;;21.13;8.30;;;;;;;;;;4955393;29;20425;-74
2023/10/10 09:10:46;;;;;;;34.00;10.27;;;;;;;;;;4953283;29;20457;-74
2023/10/10 09:13:12;;;;;;;35.20;10.37;;;;;;;;;;4949768;29;20437;-73
2023/10/10 09:15:40;;;;;;;25.60;8.57;;;;;;;;;;4955441;29;20452;-72
2023/10/10 09:18:33;;;;;;;25.13;8.43;;;;;;;;;;4944224;29;20471;-73
2023/10/10 09:21:18;;;;;;;36.50;10.13;;;;;;;;;;4935276;29;20568;-72
2023/10/10 09:23:52;;;;;;;21.97;8.43;;;;;;;;;;4930380;29;20765;-73
2023/10/10 09:26:29;;;;;;;39.43;9.77;;;;;;;;;;4936254;29;20504;-73
2023/10/10 09:28:59;;;;;;;31.23;7.80;;;;;;;;;;4936938;29;20508;-73
2023/10/10 09:31:32;;;;;;;25.43;8.47;;;;;;;;;;4936859;29;20980;-73
2023/10/10 09:34:02;;;;;;;37.67;9.87;;;;;;;;;;4936018;29;20552;-72
2023/10/10 09:36:28;;;;;;;24.10;8.57;;;;;;;;;;4933880;29;20920;-73
2023/10/10 09:39:26;;;;;;;21.57;8.13;;;;;;;;;;4923960;29;20422;-73
2023/10/10 09:55:09;;;;;;;29.40;8.53;;;;;;;;;;4936325;29;20424;-73
2023/10/10 09:57:44;;;;;;;36.63;7.67;;;;;;;;;;4935933;29;20436;-73
2023/10/10 10:00:14;;;;;;;33.57;9.30;;;;;;;;;;4936302;29;20987;-73
2023/10/10 10:02:48;;;;;;;23.13;7.10;;;;;;;;;;4925368;29;20708;-74
2023/10/10 10:05:16;;;;;;;32.13;7.47;;;;;;;;;;4917070;29;20418;-74
2023/10/10 10:07:58;;;;;;;31.17;7.60;;;;;;;;;;4932002;29;20538;-74
2023/10/10 10:10:46;;;;;;;21.60;7.77;;;;;;;;;;4936059;29;20976;-73
2023/10/10 10:13:38;;;;;;;27.17;7.00;;;;;;;;;;4925420;29;20881;-74
2023/10/10 10:16:15;;;;;;;26.00;8.00;;;;;;;;;;4922407;29;20464;-74
2023/10/10 10:18:45;;;;;;;25.07;7.67;;;;;;;;;;4933258;29;20422;-74
2023/10/10 10:21:27;;;;;;;22.83;7.07;;;;;;;;;;4933507;29;20533;-73
2023/10/10 10:24:15;;;;;;;26.97;7.90;;;;;;;;;;4928053;29;20413;-75
2023/10/10 10:26:44;;;;;;;37.93;8.23;;;;;;;;;;4934766;29;20425;-75
2023/10/10 10:29:28;;;;;;;37.67;8.60;;;;;;;;;;4935990;29;20468;-76
2023/10/10 10:31:59;;;;;;;24.50;8.73;;;;;;;;;;4936054;29;20501;-74
2023/10/10 10:37:07;;;;;;;24.73;7.77;;;;;;;;;;4936012;29;20437;-74
2023/10/10 10:39:37;;;;;;;17.30;6.70;;;;;;;;;;4934744;29;20429;-74
2023/10/10 10:42:11;;;;;;;20.83;6.87;;;;;;;;;;4935715;29;20481;-74
2023/10/10 10:44:54;;;;;;;21.27;7.70;;;;;;;;;;4935800;29;20420;-73
2023/10/10 10:47:37;;;;;;;23.30;7.63;;;;;;;;;;4935695;29;20481;-74
2023/10/10 10:50:16;;;;;;;19.10;7.73;;;;;;;;;;4935891;29;20835;-75
2023/10/10 10:52:44;;;;;;;24.33;6.83;;;;;;;;;;4937770;29;20877;-74
2023/10/10 10:55:20;;;;;;;21.07;7.90;;;;;;;;;;4935345;29;20976;-74
2023/10/10 10:57:46;;;;;;;19.03;7.60;;;;;;;;;;4935149;29;20417;-74
2023/10/10 11:00:26;;;;;;;24.50;7.70;;;;;;;;;;4935302;29;20462;-74
2023/10/10 11:02:58;;;;;;;21.23;6.27;;;;;;;;;;4935457;29;20433;-75
2023/10/10 11:05:30;;;;;;;24.60;8.97;;;;;;;;;;4935224;29;20441;-74
2023/10/10 11:08:11;;;;;;;22.43;8.03;;;;;;;;;;4935417;29;20405;-74
2023/10/10 11:10:36;;;;;;;24.20;7.00;;;;;;;;;;4935200;29;20429;-75
2023/10/10 11:13:07;;;;;;;26.10;8.00;;;;;;;;;;4935472;29;20409;-74
2023/10/10 11:15:38;;;;;;;21.17;7.83;;;;;;;;;;4967655;23;20986;-73
2023/10/10 11:18:08;;;;;;;34.17;7.40;;;;;;;;;;4954505;28;20445;-73
2023/10/10 11:20:56;;;;;;;29.73;6.90;;;;;;;;;;4940616;29;20424;-72
2023/10/10 11:23:32;;;;;;;15.67;7.60;;;;;;;;;;4935029;29;20433;-72
2023/10/10 11:26:00;;;;;;;22.10;8.07;;;;;;;;;;4918904;29;20438;-73
2023/10/10 11:28:37;;;;;;;21.17;7.70;;;;;;;;;;4915551;29;20521;-73
2023/10/10 11:31:07;;;;;;;22.83;8.97;;;;;;;;;;4921219;29;20898;-72
2023/10/10 11:33:49;;;;;;;39.43;13.73;;;;;;;;;;4930854;29;20432;-72
2023/10/10 11:36:37;;;;;;;30.57;10.97;;;;;;;;;;4934448;29;20445;-73
2023/10/10 11:39:17;;;;;;;26.23;10.60;;;;;;;;;;4929929;29;21113;-74
2023/10/10 11:41:45;;;;;;;34.33;11.80;;;;;;;;;;4916311;29;20462;-71
2023/10/10 11:44:17;;;;;;;36.53;12.83;;;;;;;;;;4919802;29;20459;-71
2023/10/10 11:46:43;;;;;;;43.80;15.67;;;;;;;;;;4923925;29;20433;-72
2023/10/10 11:49:15;;;;;;;32.70;13.70;;;;;;;;;;4926049;29;20477;-73
2023/10/10 11:51:42;;;;;;;34.87;14.97;;;;;;;;;;4934360;29;20741;-73
2023/10/10 11:54:08;;;;;;;28.13;12.80;;;;;;;;;;4934854;29;20425;-73
2023/10/10 11:56:37;;;;;;;34.80;12.40;;;;;;;;;;4922635;29;20835;-75
2023/10/10 11:59:10;;;;;;;34.40;14.30;;;;;;;;;;4915613;29;20414;-73
2023/10/10 12:01:54;;;;;;;29.60;13.10;;;;;;;;;;4915580;29;20950;-72
2023/10/10 12:04:30;;;;;;;26.13;11.97;;;;;;;;;;4915694;29;20933;-74
2023/10/10 12:06:59;;;;;;;31.03;10.90;;;;;;;;;;4915753;29;20422;-74
2023/10/10 12:09:26;;;;;;;23.10;10.50;;;;;;;;;;4923997;29;20425;-73
2023/10/10 12:12:03;;;;;;;28.63;9.60;;;;;;;;;;4920397;29;20423;-72
2023/10/10 12:14:30;;;;;;;28.73;10.60;;;;;;;;;;4915301;29;20473;-72
2023/10/10 12:17:00;;;;;;;20.20;9.77;;;;;;;;;;4915230;29;20422;-72
2023/10/10 12:19:28;;;;;;;34.20;10.20;;;;;;;;;;4917099;29;20446;-70
2023/10/10 12:21:55;;;;;;;24.40;9.23;;;;;;;;;;4928845;29;20478;-73
2023/10/10 12:24:21;;;;;;;22.57;7.70;;;;;;;;;;4926380;29;20925;-70
2023/10/10 12:26:53;;;;;;;33.47;9.33;;;;;;;;;;4932726;29;20484;-71
2023/10/10 12:29:22;;;;;;;23.80;8.27;;;;;;;;;;4935012;29;20418;-70
2023/10/10 12:31:55;;;;;;;23.43;8.63;;;;;;;;;;4932654;29;20440;-70
2023/10/10 12:34:21;;;;;;;29.53;7.50;;;;;;;;;;4932762;29;20441;-70
2023/10/10 12:36:49;;;;;;;20.10;7.33;;;;;;;;;;4919890;29;20431;-70
2023/10/10 12:39:15;;;;;;;22.83;8.40;;;;;;;;;;4914929;29;20421;-70
2023/10/10 12:41:48;;;;;;;21.07;6.67;;;;;;;;;;4914857;29;20888;-71
2023/10/10 12:44:14;;;;;;;27.60;7.30;;;;;;;;;;4915130;29;20414;-72
2023/10/10 12:46:40;;;;;;;19.43;6.57;;;;;;;;;;4914920;29;20455;-72
2023/10/10 12:49:11;;;;;;;31.07;8.37;;;;;;;;;;4918251;29;20941;-72
2023/10/10 12:51:38;;;;;;;20.00;8.40;;;;;;;;;;4918693;29;20434;-72
2023/10/10 12:54:05;;;;;;;18.87;7.47;;;;;;;;;;4919284;29;20827;-72
2023/10/10 12:56:38;;;;;;;14.23;6.77;;;;;;;;;;4918834;29;20415;-72
2023/10/10 12:59:07;;;;;;;22.17;7.20;;;;;;;;;;4918548;29;20422;-70
2023/10/10 13:01:35;;;;;;;16.80;7.10;;;;;;;;;;4918959;29;20837;-72
2023/10/10 13:04:07;;;;;;;21.77;7.23;;;;;;;;;;4926829;29;20425;-70
2023/10/10 13:06:35;;;;;;;22.20;6.57;;;;;;;;;;4937439;29;20429;-72
2023/10/10 13:09:03;;;;;;;15.50;5.83;;;;;;;;;;4937997;29;20417;-71
2023/10/10 13:11:32;;;;;;;19.60;6.80;;;;;;;;;;4937882;29;20500;-71
2023/10/10 13:14:08;;;;;;;20.60;7.03;;;;;;;;;;4937762;29;20448;-70
2023/10/10 13:19:18;;;;;;;24.07;7.63;;;;;;;;;;4937434;29;20469;-71
2023/10/10 13:21:47;;;;;;;18.63;7.10;;;;;;;;;;4934247;29;20527;-72
2023/10/10 13:24:18;;;;;;;22.27;7.67;;;;;;;;;;4942106;29;20448;-71
2023/10/10 13:26:45;;;;;;;20.00;7.87;;;;;;;;;;4929505;29;20450;-71
2023/10/10 13:29:13;;;;;;;21.57;7.47;;;;;;;;;;4937390;29;20424;-71
2023/10/10 13:31:41;;;;;;;35.63;8.80;;;;;;;;;;4941025;28;20421;-74
2023/10/10 13:34:07;;;;;;;21.73;7.10;;;;;;;;;;4949384;29;20415;-73
2023/10/10 13:36:32;;;;;;;24.73;8.57;;;;;;;;;;4968916;28;20437;-70
2023/10/10 13:39:05;;;;;;;18.60;7.53;;;;;;;;;;4937020;29;20506;-71
2023/10/10 13:41:35;;;;;;;20.60;7.77;;;;;;;;;;4936929;29;20469;-72
2023/10/10 13:44:02;;;;;;;33.53;9.37;;;;;;;;;;4937361;29;20449;-73
2023/10/10 13:46:28;;;;;;;21.37;7.67;;;;;;;;;;4936790;29;20449;-72
2023/10/10 13:48:54;;;;;;;26.00;7.77;;;;;;;;;;4917537;29;20498;-72
2023/10/10 13:51:20;;;;;;;19.03;6.90;;;;;;;;;;4924059;29;20489;-72
2023/10/10 13:53:47;;;;;;;30.30;8.20;;;;;;;;;;4936729;29;20422;-73
2023/10/10 13:56:16;;;;;;;19.27;7.37;;;;;;;;;;4936648;29;20472;-72
2023/10/10 13:58:47;;;;;;;28.40;7.80;;;;;;;;;;4936132;29;20440;-72
2023/10/10 14:03:45;;;;;;;21.93;8.00;;;;;;;;;;4936712;29;20438;-73
2023/10/10 14:06:16;;;;;;;28.20;8.37;;;;;;;;;;4928689;29;20481;-73
2023/10/10 14:08:44;;;;;;;24.03;8.10;;;;;;;;;;4935802;29;20428;-72
2023/10/10 14:14:13;;;;;;;19.70;7.50;;;;;;;;;;4926842;29;20434;-73
2023/10/10 14:16:40;;;;;;;30.67;8.87;;;;;;;;;;4945534;29;20437;-71
2023/10/10 14:19:06;;;;;;;25.47;9.27;;;;;;;;;;4917717;29;20430;-73
2023/10/10 14:21:32;;;;;;;24.90;7.30;;;;;;;;;;4920304;29;20701;-73
2023/10/10 14:24:13;;;;;;;32.63;8.50;;;;;;;;;;4930289;29;20454;-72
2023/10/10 14:26:54;;;;;;;29.53;8.33;;;;;;;;;;4916863;29;20448;-74
2023/10/10 14:29:20;;;;;;;24.87;8.50;;;;;;;;;;4916011;29;20494;-73
2023/10/10 14:31:46;;;;;;;25.13;9.83;;;;;;;;;;4917183;29;20415;-74
2023/10/10 14:34:19;;;;;;;20.70;7.40;;;;;;;;;;4917012;29;20422;-73
2023/10/10 14:36:46;;;;;;;20.63;7.70;;;;;;;;;;4917125;29;20791;-72
2023/10/10 14:39:28;;;;;;;30.23;8.00;;;;;;;;;;4934083;29;20490;-73
2023/10/10 14:41:57;;;;;;;24.97;7.83;;;;;;;;;;4932690;29;20472;-73
2023/10/10 14:44:26;;;;;;;18.37;7.50;;;;;;;;;;4935007;29;20434;-71
2023/10/10 14:46:54;;;;;;;20.37;8.10;;;;;;;;;;4924842;29;20430;-72
2023/10/10 14:49:28;;;;;;;28.17;7.77;;;;;;;;;;4916817;29;20429;-72
2023/10/10 14:51:54;;;;;;;22.13;6.53;;;;;;;;;;4917025;29;20406;-71
2023/10/10 14:54:21;;;;;;;18.23;7.77;;;;;;;;;;4921480;29;20682;-71
2023/10/10 14:56:50;;;;;;;20.13;8.17;;;;;;;;;;4921869;29;20450;-70
2023/10/10 14:59:20;;;;;;;22.50;7.77;;;;;;;;;;4916660;29;20457;-75
2023/10/10 15:01:48;;;;;;;28.77;8.00;;;;;;;;;;4916526;29;20466;-70
2023/10/10 15:04:17;;;;;;;28.23;8.47;;;;;;;;;;4926828;29;20925;-72
2023/10/10 15:06:43;;;;;;;21.10;8.83;;;;;;;;;;4935507;29;20413;-70
2023/10/10 15:09:14;;;;;;;24.60;7.93;;;;;;;;;;4935134;29;20414;-70
2023/10/10 15:11:41;;;;;;;18.17;7.30;;;;;;;;;;4934136;29;20501;-70
2023/10/10 15:14:09;;;;;;;32.90;8.80;;;;;;;;;;4935452;29;20414;-70
2023/10/10 15:16:36;;;;;;;23.37;8.23;;;;;;;;;;4935448;29;20505;-70
2023/10/10 15:19:03;;;;;;;25.50;8.83;;;;;;;;;;4934760;29;20425;-70
2023/10/10 15:21:32;;;;;;;23.50;8.50;;;;;;;;;;4935308;29;20496;-70
2023/10/10 15:24:02;;;;;;;20.30;8.53;;;;;;;;;;4935302;29;20416;-69
2023/10/10 15:26:28;;;;;;;24.70;9.43;;;;;;;;;;4935449;29;20895;-69
2023/10/10 15:28:56;;;;;;;28.77;9.03;;;;;;;;;;4934989;29;20769;-70
2023/10/10 15:31:25;;;;;;;29.13;8.37;;;;;;;;;;4935417;29;20410;-70
2023/10/10 15:33:52;;;;;;;28.63;8.80;;;;;;;;;;4935619;29;20410;-70
2023/10/10 15:36:18;;;;;;;23.20;8.30;;;;;;;;;;4934940;29;20445;-70
2023/10/10 15:38:44;;;;;;;31.70;8.83;;;;;;;;;;4934972;29;20925;-70
2023/10/10 15:41:17;;;;;;;24.87;8.17;;;;;;;;;;4933590;29;20465;-69
2023/10/10 15:43:46;;;;;;;26.70;8.03;;;;;;;;;;4934604;29;20421;-70
2023/10/10 15:46:13;;;;;;;30.17;8.57;;;;;;;;;;4934461;29;20440;-70
2023/10/10 15:48:42;;;;;;;18.93;7.70;;;;;;;;;;4934679;29;20975;-70
2023/10/10 15:51:08;;;;;;;27.77;7.93;;;;;;;;;;4930337;29;20434;-70
2023/10/10 15:53:42;;;;;;;20.90;7.93;;;;;;;;;;4934391;29;20429;-70
2023/10/10 15:56:10;;;;;;;24.77;8.33;;;;;;;;;;4934529;29;20945;-70
2023/10/10 15:58:39;;;;;;;22.80;7.17;;;;;;;;;;4934344;29;20418;-70
2023/10/10 16:01:09;;;;;;;25.67;9.00;;;;;;;;;;4934418;29;20978;-70
2023/10/10 16:03:35;;;;;;;15.30;6.73;;;;;;;;;;4934684;29;20414;-70
2023/10/10 16:06:07;;;;;;;23.60;8.10;;;;;;;;;;4934505;29;20429;-71
2023/10/10 16:08:35;;;;;;;26.43;8.27;;;;;;;;;;4934650;29;20410;-70
2023/10/10 16:11:01;;;;;;;25.03;8.63;;;;;;;;;;4934550;29;20420;-70
2023/10/10 16:13:27;;;;;;;14.80;7.33;;;;;;;;;;4916080;29;20427;-70
2023/10/10 16:15:56;;;;;;;20.53;8.33;;;;;;;;;;4915327;29;20465;-70
2023/10/10 16:18:24;;;;;;;20.10;7.70;;;;;;;;;;4915370;29;20415;-71
2023/10/10 16:20:49;;;;;;;20.60;8.37;;;;;;;;;;4915755;29;20410;-71
2023/10/10 16:23:16;;;;;;;21.90;8.33;;;;;;;;;;4928654;29;20437;-71
2023/10/10 16:25:42;;;;;;;24.33;7.80;;;;;;;;;;4917785;29;20439;-70
2023/10/10 16:28:08;;;;;;;26.63;8.30;;;;;;;;;;4914212;29;20470;-70
2023/10/10 16:30:39;;;;;;;34.03;10.30;;;;;;;;;;4915432;29;20502;-71
2023/10/10 16:33:08;;;;;;;24.23;9.07;;;;;;;;;;4915318;29;20514;-70
2023/10/10 16:35:34;;;;;;;26.30;8.50;;;;;;;;;;4915398;29;20864;-72
2023/10/10 16:38:02;;;;;;;27.10;8.93;;;;;;;;;;4915180;29;20438;-70
2023/10/10 16:40:30;;;;;;;23.50;9.53;;;;;;;;;;4915362;29;20414;-70
2023/10/10 16:42:56;;;;;;;24.97;8.80;;;;;;;;;;4915309;29;20468;-70
2023/10/10 16:45:22;;;;;;;35.77;9.27;;;;;;;;;;4916321;29;20484;-70
2023/10/10 16:47:49;;;;;;;24.17;8.60;;;;;;;;;;4915574;29;20796;-70
2023/10/10 16:50:16;;;;;;;29.80;9.30;;;;;;;;;;4915338;29;20411;-70
2023/10/10 16:52:42;;;;;;;31.87;8.07;;;;;;;;;;4928992;29;20423;-70
2023/10/10 16:55:12;;;;;;;23.33;8.23;;;;;;;;;;4935073;29;20438;-70
2023/10/10 16:57:39;;;;;;;25.83;8.17;;;;;;;;;;4921891;29;20410;-70
2023/10/10 17:00:13;;;;;;;30.77;10.10;;;;;;;;;;4915343;29;20414;-70
2023/10/10 17:02:45;;;;;;;27.43;8.73;;;;;;;;;;4915456;29;20462;-70
2023/10/10 17:05:11;;;;;;;19.20;7.83;;;;;;;;;;4915017;29;20509;-69
2023/10/10 17:07:40;;;;;;;17.70;7.73;;;;;;;;;;4916675;29;20414;-69
2023/10/10 17:10:13;;;;;;;25.40;8.33;;;;;;;;;;4934167;29;20770;-69
2023/10/10 17:12:42;;;;;;;21.00;8.13;;;;;;;;;;4934059;29;20917;-69
2023/10/10 17:15:08;;;;;;;24.27;9.77;;;;;;;;;;4934289;29;20446;-69
2023/10/10 17:17:35;;;;;;;31.20;8.23;;;;;;;;;;4934399;29;20421;-69
2023/10/10 17:20:01;;;;;;;25.43;8.00;;;;;;;;;;4934036;29;20414;-69
2023/10/10 17:22:27;;;;;;;23.73;8.30;;;;;;;;;;4933728;29;20461;-69
2023/10/10 17:24:53;;;;;;;37.03;9.20;;;;;;;;;;4934008;29;20459;-69
2023/10/10 17:27:19;;;;;;;26.10;7.93;;;;;;;;;;4933986;29;20464;-69
2023/10/10 17:29:45;;;;;;;22.60;8.00;;;;;;;;;;4934028;29;20445;-69
2023/10/10 17:32:11;;;;;;;22.90;9.40;;;;;;;;;;4934049;29;20481;-69
2023/10/10 17:34:40;;;;;;;23.70;9.30;;;;;;;;;;4935101;29;20441;-69
2023/10/10 17:37:08;;;;;;;26.63;9.80;;;;;;;;;;4936951;29;20418;-69
2023/10/10 17:39:35;;;;;;;33.07;10.10;;;;;;;;;;4937390;29;20413;-69
2023/10/10 17:42:00;;;;;;;28.60;8.83;;;;;;;;;;4935582;29;20517;-69
2023/10/10 17:44:26;;;;;;;32.10;9.87;;;;;;;;;;4937204;29;20469;-69
2023/10/10 17:46:52;;;;;;;26.00;10.53;;;;;;;;;;4936801;29;20410;-69
2023/10/10 17:49:19;;;;;;;24.00;11.27;;;;;;;;;;4936915;29;20425;-69
2023/10/10 17:51:46;;;;;;;27.10;12.10;;;;;;;;;;4937131;29;20418;-69
2023/10/10 17:54:12;;;;;;;27.20;11.70;;;;;;;;;;4940709;29;20416;-69
2023/10/10 17:56:38;;;;;;;39.23;11.87;;;;;;;;;;4955307;29;20445;-69
2023/10/10 17:59:05;;;;;;;41.63;11.80;;;;;;;;;;4950927;29;21056;-70
2023/10/10 18:01:31;;;;;;;29.83;10.93;;;;;;;;;;4948666;29;20469;-71
2023/10/10 18:03:57;;;;;;;30.07;9.93;;;;;;;;;;4952301;29;20429;-70
2023/10/10 18:06:26;;;;;;;29.00;10.97;;;;;;;;;;4934961;29;20450;-70
2023/10/10 18:08:55;;;;;;;32.27;11.27;;;;;;;;;;4936583;29;20422;-71
2023/10/10 18:11:21;;;;;;;28.73;10.33;;;;;;;;;;4936198;29;20422;-71
2023/10/10 18:13:49;;;;;;;32.47;11.50;;;;;;;;;;4938384;29;20455;-70
2023/10/10 18:16:21;;;;;;;22.60;10.93;;;;;;;;;;4937244;29;20466;-70
2023/10/10 18:18:47;;;;;;;43.77;11.27;;;;;;;;;;4918979;29;20523;-71
2023/10/10 18:21:13;;;;;;;29.60;11.33;;;;;;;;;;4917562;29;20497;-70
2023/10/10 18:23:39;;;;;;;32.03;11.30;;;;;;;;;;4927023;29;20438;-70
2023/10/10 18:26:12;;;;;;;31.60;10.90;;;;;;;;;;4921068;29;20949;-70
2023/10/10 18:28:41;;;;;;;29.60;11.60;;;;;;;;;;4936279;29;20571;-70
2023/10/10 18:31:18;;;;;;;27.10;10.20;;;;;;;;;;4936476;29;20510;-70
2023/10/10 18:33:44;;;;;;;27.23;10.60;;;;;;;;;;4936251;29;20485;-70
2023/10/10 18:36:11;;;;;;;30.10;10.83;;;;;;;;;;4936196;29;20471;-71
2023/10/10 18:38:37;;;;;;;26.70;11.47;;;;;;;;;;4936044;29;20426;-70
2023/10/10 18:41:04;;;;;;;34.43;11.03;;;;;;;;;;4935823;29;20432;-71
2023/10/10 18:43:33;;;;;;;25.47;11.13;;;;;;;;;;4935740;29;20425;-71
2023/10/10 18:46:06;;;;;;;34.40;11.33;;;;;;;;;;4916131;29;20450;-73
2023/10/10 18:48:36;;;;;;;33.83;11.90;;;;;;;;;;4916664;29;20543;-72
2023/10/10 18:51:06;;;;;;;26.40;11.43;;;;;;;;;;4916911;29;20769;-71
2023/10/10 18:53:35;;;;;;;37.77;13.60;;;;;;;;;;4926002;29;20524;-72
2023/10/10 18:56:05;;;;;;;34.07;11.83;;;;;;;;;;4917670;29;20450;-72
2023/10/10 18:58:31;;;;;;;33.40;13.20;;;;;;;;;;4916752;29;20438;-72
2023/10/10 19:00:57;;;;;;;31.70;13.10;;;;;;;;;;4920914;29;20426;-72
2023/10/10 19:03:23;;;;;;;41.50;13.63;;;;;;;;;;4935813;29;20985;-74
2023/10/10 19:05:52;;;;;;;30.53;11.53;;;;;;;;;;4935494;29;20794;-73
2023/10/10 19:08:19;;;;;;;35.40;12.27;;;;;;;;;;4935384;29;20413;-73
2023/10/10 19:10:52;;;;;;;44.70;13.20;;;;;;;;;;4935114;29;20805;-72
2023/10/10 19:13:18;;;;;;;28.43;12.60;;;;;;;;;;4935417;29;20424;-70
2023/10/10 19:15:47;;;;;;;32.90;12.10;;;;;;;;;;4935263;29;20465;-73
2023/10/10 19:18:15;;;;;;;33.30;12.90;;;;;;;;;;4935185;29;20429;-71
2023/10/10 19:20:42;;;;;;;30.37;13.07;;;;;;;;;;4933988;29;20947;-71
2023/10/10 19:23:09;;;;;;;33.53;13.13;;;;;;;;;;4927956;29;20473;-72
2023/10/10 19:28:38;;;;;;;39.73;12.40;;;;;;;;;;4923515;29;20458;-71
2023/10/10 19:31:04;;;;;;;33.00;12.67;;;;;;;;;;4929847;29;20925;-72
2023/10/10 19:33:31;;;;;;;32.97;12.30;;;;;;;;;;4920208;29;20819;-72
2023/10/10 19:39:28;;;;;;;34.03;11.77;;;;;;;;;;4923451;29;20497;-71
2023/10/10 19:41:55;;;;;;;32.20;12.50;;;;;;;;;;4924935;29;20476;-71
2023/10/10 19:44:25;;;;;;;30.77;11.27;;;;;;;;;;4939930;29;20973;-71
2023/10/10 19:46:53;;;;;;;36.70;12.87;;;;;;;;;;4925458;29;20422;-72
2023/10/10 19:49:19;;;;;;;32.27;14.90;;;;;;;;;;4924893;29;20505;-72
2023/10/10 19:51:45;;;;;;;29.87;12.47;;;;;;;;;;4923095;29;20558;-71
2023/10/10 19:54:42;;;;;;;40.80;13.50;;;;;;;;;;4928611;29;20493;-71
2023/10/10 19:57:08;;;;;;;42.73;13.90;;;;;;;;;;4934948;28;20441;-71
2023/10/10 19:59:34;;;;;;;27.00;11.97;;;;;;;;;;4923731;29;20422;-72
2023/10/10 20:02:00;;;;;;;39.03;13.63;;;;;;;;;;4917475;29;20565;-71
2023/10/10 20:04:26;;;;;;;36.43;11.90;;;;;;;;;;4915903;29;20461;-72
2023/10/10 20:06:52;;;;;;;35.40;12.73;;;;;;;;;;4921172;29;20418;-72
2023/10/10 20:09:20;;;;;;;43.27;14.00;;;;;;;;;;4938488;29;20516;-71
2023/10/10 20:11:46;;;;;;;34.47;12.90;;;;;;;;;;4941892;29;21109;-76
2023/10/10 20:14:14;;;;;;;31.30;12.50;;;;;;;;;;4930700;29;20429;-71
2023/10/10 20:16:40;;;;;;;35.03;14.37;;;;;;;;;;4932962;29;20437;-71
2023/10/10 20:19:07;;;;;;;36.47;12.87;;;;;;;;;;4933134;29;20527;-71
2023/10/10 20:21:33;;;;;;;44.83;14.27;;;;;;;;;;4933886;29;20465;-71
2023/10/10 20:23:59;;;;;;;38.20;15.47;;;;;;;;;;4933805;29;20444;-71
2023/10/10 20:26:25;;;;;;;33.70;13.47;;;;;;;;;;4933910;29;20550;-71
2023/10/10 20:28:51;;;;;;;29.30;11.77;;;;;;;;;;4933451;29;20758;-70
2023/10/10 20:31:17;;;;;;;29.73;13.30;;;;;;;;;;4933886;29;20453;-70
2023/10/10 20:33:43;;;;;;;38.83;12.80;;;;;;;;;;4933892;29;20450;-71
2023/10/10 20:36:13;;;;;;;32.33;13.70;;;;;;;;;;4917921;29;20446;-70
2023/10/10 20:38:42;;;;;;;37.90;12.43;;;;;;;;;;4919703;29;20438;-70
2023/10/10 20:41:12;;;;;;;37.30;13.50;;;;;;;;;;4921623;29;20425;-70